Time;durP1;ratioP1;P1;durP2;ratioP2;P2;SDS_P1;SDS_P2;PMS_P1;PMS_P2;Temp;Humidity;BMP_temperature;BMP_pressure;BME280_temperature;BME280_humidity;BME280_pressure;Samples;Min_cycle;Max_cycle;Signal;HPM_P1;HPM_P2
2023/02/19 00:01:39;;;;;;;9.38;2.87;;;;;;;4.74;65.51;99127.75;1658895;86;21052;-63
2023/02/19 00:04:21;;;;;;;8.35;3.10;;;;;;;4.74;65.47;99138.08;1658648;86;21078;-65
2023/02/19 00:06:52;;;;;;;7.58;2.60;;;;;;;4.74;65.46;99135.88;1658697;86;21078;-65
2023/02/19 00:09:42;;;;;;;9.55;2.98;;;;;;;4.75;65.43;99137.56;1656709;86;21071;-66
2023/02/19 00:12:12;;;;;;;11.55;2.92;;;;;;;4.75;65.38;99137.56;1658626;86;21042;-67
2023/02/19 00:14:43;;;;;;;9.20;2.83;;;;;;;4.73;65.28;99136.40;1658653;86;21054;-64
2023/02/19 00:17:12;;;;;;;7.33;2.58;;;;;;;4.71;65.18;99137.11;1658945;86;21034;-65
2023/02/19 00:19:43;;;;;;;7.28;2.35;;;;;;;4.70;65.07;99131.87;1658599;86;21124;-63
2023/02/19 00:22:12;;;;;;;10.58;2.52;;;;;;;4.70;65.02;99135.43;1658621;86;21078;-65
2023/02/19 00:24:41;;;;;;;7.92;2.70;;;;;;;4.70;64.96;99128.64;1658760;86;21097;-65
2023/02/19 00:27:12;;;;;;;7.97;2.45;;;;;;;4.69;64.80;99131.55;1658637;86;21494;-64
2023/02/19 00:29:43;;;;;;;11.35;2.85;;;;;;;4.68;64.84;99125.28;1658500;86;21043;-64
2023/02/19 00:32:14;;;;;;;6.97;2.33;;;;;;;4.67;64.87;99134.45;1603713;89;21089;-64
2023/02/19 00:34:44;;;;;;;5.90;2.60;;;;;;;4.66;64.82;99127.86;1603653;89;21121;-64
2023/02/19 00:37:13;;;;;;;7.80;2.50;;;;;;;4.64;64.76;99121.27;1598328;88;21237;-64
2023/02/19 00:39:46;;;;;;;12.47;3.47;;;;;;;4.62;64.85;99124.69;1584628;90;21066;-64
2023/02/19 00:42:15;;;;;;;6.40;2.52;;;;;;;4.62;65.01;99128.77;1584682;90;21058;-65
2023/02/19 00:44:45;;;;;;;7.50;2.60;;;;;;;4.60;64.96;99128.11;1584791;90;21120;-65
2023/02/19 00:47:15;;;;;;;10.45;2.95;;;;;;;4.58;64.77;99136.95;1584821;90;21061;-64
2023/02/19 00:49:44;;;;;;;18.23;5.05;;;;;;;4.57;64.69;99133.08;1597101;87;21078;-64
2023/02/19 00:52:13;;;;;;;16.62;5.30;;;;;;;4.56;64.70;99134.11;1640449;87;21102;-64
2023/02/19 00:54:42;;;;;;;14.95;4.53;;;;;;;4.54;64.78;99132.91;1640572;87;21103;-64
2023/02/19 00:57:11;;;;;;;15.63;5.35;;;;;;;4.53;64.81;99143.43;1640598;87;21098;-65
2023/02/19 00:59:42;;;;;;;14.03;3.75;;;;;;;4.52;64.89;99140.39;1640577;87;21103;-65
2023/02/19 01:02:12;;;;;;;10.28;3.62;;;;;;;4.52;64.89;99145.81;1640704;87;21079;-65
2023/02/19 01:04:41;;;;;;;12.53;4.83;;;;;;;4.54;64.94;99151.89;1640404;87;21066;-66
2023/02/19 01:07:11;;;;;;;9.30;3.00;;;;;;;4.53;65.02;99148.86;1640646;87;21034;-64
2023/02/19 01:09:40;;;;;;;11.38;3.50;;;;;;;4.55;64.95;99151.38;1640751;87;21055;-63
2023/02/19 01:12:09;;;;;;;10.23;3.35;;;;;;;4.54;65.04;99151.89;1640513;87;21106;-65
2023/02/19 01:14:38;;;;;;;6.28;2.42;;;;;;;4.56;65.09;99158.00;1640384;87;21110;-65
2023/02/19 01:17:09;;;;;;;10.70;2.25;;;;;;;4.57;65.00;99162.39;1585990;89;21535;-65
2023/02/19 01:19:39;;;;;;;9.05;2.27;;;;;;;4.58;64.92;99158.66;1585931;90;21057;-65
2023/02/19 01:22:08;;;;;;;7.33;2.42;;;;;;;4.57;64.78;99161.04;1586224;90;21421;-64
2023/02/19 01:24:38;;;;;;;7.85;2.47;;;;;;;4.55;65.02;99151.38;1586200;89;21469;-64
2023/02/19 01:27:07;;;;;;;9.15;2.30;;;;;;;4.54;64.98;99151.89;1586097;90;21197;-65
2023/02/19 01:29:37;;;;;;;7.17;2.00;;;;;;;4.53;65.04;99146.14;1586212;90;21058;-66
2023/02/19 01:32:07;;;;;;;10.65;2.50;;;;;;;4.53;64.91;99146.14;1565565;90;21517;-64
2023/02/19 01:34:38;;;;;;;8.30;2.10;;;;;;;4.54;64.98;99153.77;1586090;90;21057;-64
2023/02/19 01:37:10;;;;;;;6.03;2.33;;;;;;;4.55;64.97;99161.75;1586123;89;21049;-64
2023/02/19 01:39:38;;;;;;;8.25;2.85;;;;;;;4.56;65.07;99161.23;1622253;88;21519;-65
2023/02/19 01:42:15;;;;;;;8.00;2.25;;;;;;;4.55;65.14;99159.52;1651674;86;21506;-64
2023/02/19 01:44:50;;;;;;;6.37;2.35;;;;;;;4.53;65.29;99171.91;1644087;86;21506;-64
2023/02/19 01:47:20;;;;;;;9.50;2.55;;;;;;;4.51;65.17;99164.99;1667667;86;21086;-65
2023/02/19 01:49:53;;;;;;;9.48;2.75;;;;;;;4.51;65.32;99166.35;1667667;86;21099;-63
2023/02/19 01:52:31;;;;;;;12.07;2.45;;;;;;;4.50;65.41;99169.58;1667551;86;21039;-65
2023/02/19 01:55:01;;;;;;;9.35;2.00;;;;;;;4.52;65.52;99169.39;1667720;86;21011;-67
2023/02/19 01:57:35;;;;;;;8.90;3.00;;;;;;;4.52;65.72;99173.45;1667534;86;21035;-67
2023/02/19 02:00:10;;;;;;;8.45;2.65;;;;;;;4.54;65.85;99179.02;1667636;86;21051;-65
2023/02/19 02:02:45;;;;;;;9.80;3.00;;;;;;;4.57;65.69;99174.60;1643944;86;21015;-65
2023/02/19 02:05:41;;;;;;;14.73;3.60;;;;;;;4.57;65.63;99178.67;1667486;86;21436;-65
2023/02/19 02:10:58;;;;;;;16.87;3.85;;;;;;;4.53;65.64;99188.19;1647091;86;21483;-64
2023/02/19 02:13:32;;;;;;;12.47;3.47;;;;;;;4.52;65.73;99190.57;1667561;86;21042;-64
2023/02/19 02:16:24;;;;;;;8.75;3.47;;;;;;;4.52;65.84;99199.22;1667641;86;21063;-65
2023/02/19 02:19:33;;;;;;;12.13;3.15;;;;;;;4.47;65.91;99199.79;1667496;86;21415;-66
2023/02/19 02:22:11;;;;;;;8.30;3.00;;;;;;;4.45;66.20;99201.84;1659498;86;21441;-63
2023/02/19 02:24:47;;;;;;;8.38;2.87;;;;;;;4.42;66.35;99207.64;1667682;86;21023;-65
2023/02/19 02:27:56;;;;;;;7.28;3.02;;;;;;;4.39;66.51;99209.37;1667511;86;21048;-65
2023/02/19 02:30:56;;;;;;;8.33;3.00;;;;;;;4.38;66.75;99211.77;1667761;86;21459;-64
2023/02/19 02:33:47;;;;;;;12.40;3.12;;;;;;;4.36;67.04;99217.88;1667515;86;20984;-66
2023/02/19 02:36:36;;;;;;;10.93;2.85;;;;;;;4.37;67.24;99224.99;1667685;86;21023;-65
2023/02/19 02:39:09;;;;;;;13.68;2.50;;;;;;;4.37;67.30;99217.70;1661629;86;21044;-66
2023/02/19 02:41:43;;;;;;;9.58;2.98;;;;;;;4.36;67.36;99217.88;1665110;86;21023;-65
2023/02/19 02:44:12;;;;;;;11.53;3.35;;;;;;;4.36;67.55;99219.23;1665125;86;21027;-64
2023/02/19 02:46:42;;;;;;;12.07;3.00;;;;;;;4.35;67.65;99214.84;1665303;86;21031;-65
2023/02/19 02:49:19;;;;;;;17.05;3.00;;;;;;;4.34;67.66;99215.36;1665288;86;21121;-64
2023/02/19 02:51:51;;;;;;;8.80;3.30;;;;;;;4.32;67.72;99222.00;1665320;86;21503;-63
2023/02/19 02:57:14;;;;;;;12.80;3.17;;;;;;;4.27;67.90;99224.42;1665359;86;21000;-64
2023/02/19 02:59:47;;;;;;;10.48;3.22;;;;;;;4.22;68.03;99230.41;1665104;85;21032;-64
2023/02/19 03:02:23;;;;;;;9.80;3.33;;;;;;;4.20;68.22;99240.59;1665427;86;21206;-63
2023/02/19 03:08:11;;;;;;;8.93;3.00;;;;;;;4.12;68.59;99248.30;1665202;86;22116;-65
2023/02/19 03:10:48;;;;;;;8.13;2.80;;;;;;;4.07;68.82;99252.59;1665116;86;21027;-64
2023/02/19 03:19:18;;;;;;;10.03;2.70;;;;;;;4.05;69.21;99251.41;1665359;86;20987;-64
2023/02/19 03:22:01;;;;;;;8.68;2.77;;;;;;;4.03;69.30;99252.11;1665037;86;21039;-64
2023/02/19 03:27:27;;;;;;;11.70;2.70;;;;;;;3.96;69.51;99255.74;1665169;86;21019;-65
2023/02/19 03:29:58;;;;;;;8.83;2.27;;;;;;;3.92;69.72;99256.63;1665144;86;21184;-65
2023/02/19 03:33:01;;;;;;;9.43;2.77;;;;;;;3.89;69.89;99262.37;1665383;86;21019;-66
2023/02/19 03:35:32;;;;;;;10.28;2.52;;;;;;;3.87;69.99;99260.36;1665259;86;21060;-64
2023/02/19 03:38:17;;;;;;;7.92;2.50;;;;;;;3.85;70.11;99258.34;1664479;86;21051;-63
2023/02/19 03:41:06;;;;;;;10.95;2.87;;;;;;;3.81;70.25;99265.16;1654289;87;20992;-64
2023/02/19 03:43:51;;;;;;;13.93;3.00;;;;;;;3.79;70.38;99268.05;1654072;87;21645;-65
2023/02/19 03:46:31;;;;;;;13.18;3.55;;;;;;;3.78;70.53;99281.77;1628895;87;21012;-65
2023/02/19 03:49:05;;;;;;;13.55;3.37;;;;;;;3.76;70.64;99286.53;1654377;87;21052;-65
2023/02/19 03:51:45;;;;;;;12.10;2.87;;;;;;;3.76;70.73;99284.66;1654310;87;21047;-65
2023/02/19 03:54:24;;;;;;;8.23;2.70;;;;;;;3.78;70.84;99291.25;1653888;87;21131;-65
2023/02/19 03:57:03;;;;;;;7.80;3.05;;;;;;;3.80;70.87;99298.69;1631509;87;21088;-64
2023/02/19 03:59:56;;;;;;;9.95;3.02;;;;;;;3.80;70.89;99296.82;1631950;87;21093;-64
2023/02/19 04:02:37;;;;;;;16.37;3.25;;;;;;;3.80;71.00;99289.20;1654344;87;21028;-65
2023/02/19 04:05:17;;;;;;;8.10;2.90;;;;;;;3.77;71.08;99290.41;1601247;87;21024;-66
2023/02/19 04:07:50;;;;;;;11.08;2.62;;;;;;;3.73;71.18;99282.83;1654192;87;20984;-65
2023/02/19 04:10:21;;;;;;;8.35;2.77;;;;;;;3.68;71.29;99293.37;1654073;87;21408;-64
2023/02/19 04:13:00;;;;;;;10.45;3.40;;;;;;;3.65;71.38;99289.66;1654272;87;21044;-65
2023/02/19 04:15:32;;;;;;;7.35;2.92;;;;;;;3.63;71.55;99287.64;1654004;87;21016;-64
2023/02/19 04:18:06;;;;;;;8.60;2.83;;;;;;;3.60;71.68;99283.95;1654143;87;21040;-65
2023/02/19 04:20:39;;;;;;;14.05;3.50;;;;;;;3.59;71.89;99283.61;1653904;85;21045;-66
2023/02/19 04:23:08;;;;;;;12.25;3.60;;;;;;;3.58;72.05;99288.70;1654055;87;21064;-64
2023/02/19 04:25:41;;;;;;;11.22;3.30;;;;;;;3.56;72.20;99297.00;1654110;87;21028;-65
2023/02/19 04:28:10;;;;;;;11.75;3.15;;;;;;;3.53;72.43;99300.58;1653930;87;21012;-64
2023/02/19 04:30:39;;;;;;;8.23;3.25;;;;;;;3.50;72.70;99301.78;1631990;87;20996;-66
2023/02/19 04:33:08;;;;;;;11.35;3.50;;;;;;;3.47;72.91;99308.41;1653848;87;21463;-64
2023/02/19 04:35:37;;;;;;;11.20;3.30;;;;;;;3.45;73.16;99308.25;1654222;86;21024;-64
2023/02/19 04:38:07;;;;;;;13.05;3.52;;;;;;;3.44;73.36;99314.17;1654034;87;21028;-64
2023/02/19 04:40:36;;;;;;;9.23;3.30;;;;;;;3.42;73.54;99327.05;1664774;86;21031;-64
2023/02/19 04:43:05;;;;;;;9.28;3.15;;;;;;;3.40;73.77;99325.03;1665253;86;21443;-65
2023/02/19 04:45:36;;;;;;;11.38;3.70;;;;;;;3.36;73.89;99319.64;1664809;86;20995;-65
2023/02/19 04:48:05;;;;;;;10.65;3.40;;;;;;;3.32;74.20;99335.91;1647882;86;21047;-65
2023/02/19 04:50:36;;;;;;;10.58;3.80;;;;;;;3.29;74.37;99333.55;1665142;86;21479;-66
2023/02/19 04:53:06;;;;;;;8.50;3.10;;;;;;;3.28;74.53;99335.08;1665072;86;21406;-65
2023/02/19 04:55:38;;;;;;;8.75;3.33;;;;;;;3.27;74.65;99323.92;1665224;86;21070;-63
2023/02/19 04:58:07;;;;;;;10.75;3.47;;;;;;;3.24;74.58;99323.73;1665012;86;21271;-64
2023/02/19 05:00:36;;;;;;;9.60;2.70;;;;;;;3.22;74.57;99337.95;1665333;86;21011;-64
2023/02/19 05:03:07;;;;;;;14.18;3.22;;;;;;;3.21;74.54;99328.15;1665047;86;21015;-65
2023/02/19 05:05:38;;;;;;;11.65;2.92;;;;;;;3.20;74.43;99338.64;1665024;86;21027;-65
2023/02/19 05:08:08;;;;;;;13.03;3.08;;;;;;;3.18;74.36;99341.53;1665328;86;21044;-63
2023/02/19 05:10:38;;;;;;;8.25;2.50;;;;;;;3.16;74.26;99343.56;1664941;86;21038;-63
2023/02/19 05:13:09;;;;;;;8.53;2.95;;;;;;;3.13;74.07;99345.78;1665214;86;21465;-65
2023/02/19 05:15:39;;;;;;;8.70;2.87;;;;;;;3.13;73.86;99351.20;1665074;86;21479;-65
2023/02/19 05:18:08;;;;;;;11.70;2.85;;;;;;;3.10;73.59;99355.61;1665455;86;21095;-65
2023/02/19 05:20:38;;;;;;;8.20;2.60;;;;;;;3.05;73.46;99361.55;1665411;86;21505;-65
2023/02/19 05:23:07;;;;;;;12.60;2.83;;;;;;;3.04;73.47;99363.07;1665241;86;21083;-63
2023/02/19 05:25:35;;;;;;;11.73;2.35;;;;;;;3.03;73.52;99364.09;1665262;86;21003;-65
2023/02/19 05:28:17;;;;;;;7.37;2.58;;;;;;;3.03;73.72;99361.38;1665286;86;21426;-65
2023/02/19 05:30:51;;;;;;;10.60;3.20;;;;;;;3.02;73.87;99363.24;1665360;86;21035;-64
2023/02/19 05:33:23;;;;;;;7.78;3.12;;;;;;;3.02;74.08;99366.46;1665172;86;21038;-65
2023/02/19 05:35:54;;;;;;;11.48;4.10;;;;;;;3.02;74.17;99362.41;1665110;86;21075;-67
2023/02/19 05:38:23;;;;;;;13.78;3.60;;;;;;;2.97;74.34;99368.34;1665131;86;21027;-64
2023/02/19 05:40:53;;;;;;;9.58;3.80;;;;;;;2.97;74.58;99363.44;1665085;86;21067;-64
2023/02/19 05:43:24;;;;;;;11.08;3.52;;;;;;;2.97;74.76;99374.26;1665158;86;21046;-65
2023/02/19 05:45:55;;;;;;;10.90;3.37;;;;;;;2.97;74.86;99371.55;1665073;86;20992;-66
2023/02/19 05:48:25;;;;;;;8.83;3.10;;;;;;;2.96;74.93;99381.53;1647323;86;21028;-64
2023/02/19 05:51:06;;;;;;;11.10;3.33;;;;;;;2.96;75.00;99386.09;1665151;86;21033;-65
2023/02/19 05:53:37;;;;;;;11.05;3.77;;;;;;;2.96;75.13;99383.39;1665086;86;21043;-65
2023/02/19 05:56:28;;;;;;;13.38;3.90;;;;;;;2.97;75.11;99385.92;1665234;86;21511;-65
2023/02/19 05:58:57;;;;;;;9.10;3.27;;;;;;;2.97;75.09;99394.55;1665403;86;21007;-65
2023/02/19 06:01:27;;;;;;;14.15;3.50;;;;;;;2.98;75.07;99390.83;1665142;86;21407;-65
2023/02/19 06:03:56;;;;;;;11.53;3.60;;;;;;;3.00;74.97;99390.14;1665354;86;20980;-66
2023/02/19 06:06:27;;;;;;;8.80;2.67;;;;;;;3.00;74.77;99394.20;1665316;86;21067;-65
2023/02/19 06:08:56;;;;;;;9.63;2.83;;;;;;;3.00;74.51;99398.27;1665322;86;21055;-65
2023/02/19 06:11:26;;;;;;;7.92;2.33;;;;;;;3.00;74.12;99412.63;1665114;86;21030;-64
2023/02/19 06:13:55;;;;;;;12.58;3.40;;;;;;;3.02;73.99;99412.46;1648206;86;21490;-65
2023/02/19 06:16:23;;;;;;;10.50;2.95;;;;;;;3.03;73.69;99404.67;1665034;86;21016;-64
2023/02/19 06:18:54;;;;;;;13.60;3.52;;;;;;;3.04;73.51;99403.15;1665147;86;21055;-65
2023/02/19 06:21:22;;;;;;;12.70;2.98;;;;;;;3.07;73.38;99400.09;1665360;86;21023;-65
2023/02/19 06:23:51;;;;;;;13.25;3.33;;;;;;;3.08;73.16;99398.23;1665055;86;21930;-66
2023/02/19 06:26:23;;;;;;;10.08;3.25;;;;;;;3.08;73.08;99401.78;1665333;86;21071;-67
2023/02/19 06:28:52;;;;;;;8.93;3.27;;;;;;;3.09;73.07;99389.94;1665060;86;21446;-67
2023/02/19 06:31:23;;;;;;;10.45;2.85;;;;;;;3.13;72.95;99395.84;1665432;86;21015;-66
2023/02/19 06:33:51;;;;;;;7.92;2.60;;;;;;;3.13;72.79;99394.49;1665017;86;21020;-65
2023/02/19 06:36:21;;;;;;;10.32;3.27;;;;;;;3.16;72.72;99396.85;1665375;86;21073;-65
2023/02/19 06:38:49;;;;;;;17.30;5.33;;;;;;;3.18;72.68;99402.94;1647982;86;21080;-66
2023/02/19 06:41:20;;;;;;;10.15;3.37;;;;;;;3.21;72.75;99403.94;1665058;86;21000;-65
2023/02/19 06:43:49;;;;;;;9.10;3.45;;;;;;;3.21;73.02;99402.58;1665342;86;21097;-66
2023/02/19 06:46:17;;;;;;;9.73;3.50;;;;;;;3.20;73.48;99403.60;1665093;86;21020;-65
2023/02/19 06:48:47;;;;;;;15.00;4.83;;;;;;;3.20;74.03;99407.66;1665272;86;21468;-66
2023/02/19 06:51:18;;;;;;;9.25;3.72;;;;;;;3.17;74.34;99409.36;1665130;86;21036;-67
2023/02/19 06:53:46;;;;;;;9.43;3.62;;;;;;;3.18;74.72;99417.81;1665174;86;21043;-65
2023/02/19 06:56:33;;;;;;;9.20;3.60;;;;;;;3.18;75.16;99416.47;1665394;86;21436;-65
2023/02/19 06:59:06;;;;;;;12.47;4.10;;;;;;;3.19;75.61;99416.80;1665478;86;21027;-64
2023/02/19 07:01:35;;;;;;;9.58;3.65;;;;;;;3.17;76.05;99405.30;1665239;86;20972;-66
2023/02/19 07:04:04;;;;;;;12.28;3.65;;;;;;;3.14;76.51;99407.85;1665234;86;21059;-65
2023/02/19 07:06:33;;;;;;;8.55;3.70;;;;;;;3.14;76.93;99399.73;1665036;86;21127;-67
2023/02/19 07:09:04;;;;;;;9.68;3.40;;;;;;;3.15;77.21;99401.42;1665060;86;21455;-66
2023/02/19 07:11:37;;;;;;;10.23;3.15;;;;;;;3.16;77.52;99403.61;1665091;86;21452;-67
2023/02/19 07:14:07;;;;;;;7.47;3.40;;;;;;;3.17;77.67;99414.78;1665050;86;21403;-64
2023/02/19 07:16:38;;;;;;;9.15;3.27;;;;;;;3.18;77.83;99405.13;1665122;86;21051;-64
2023/02/19 07:19:08;;;;;;;6.03;2.92;;;;;;;3.22;77.93;99406.98;1665179;86;21058;-65
2023/02/19 07:21:38;;;;;;;10.03;3.08;;;;;;;3.25;77.94;99405.78;1665201;86;21412;-66
2023/02/19 07:24:08;;;;;;;9.88;3.60;;;;;;;3.27;78.08;99408.68;1665034;86;21479;-66
2023/02/19 07:26:39;;;;;;;9.13;3.20;;;;;;;3.32;78.12;99408.16;1630905;88;21070;-66
2023/02/19 07:29:08;;;;;;;10.03;2.98;;;;;;;3.37;78.08;99409.31;1630983;88;21070;-66
2023/02/19 07:31:37;;;;;;;9.60;3.45;;;;;;;3.42;77.98;99409.62;1610045;88;21074;-64
2023/02/19 07:34:07;;;;;;;14.15;4.25;;;;;;;3.48;77.83;99398.60;1631177;87;21493;-65
2023/02/19 07:36:35;;;;;;;9.55;3.30;;;;;;;3.54;77.52;99390.28;1631380;88;21176;-66
2023/02/19 07:39:04;;;;;;;9.25;3.15;;;;;;;3.55;76.88;99399.58;1631160;88;21066;-66
2023/02/19 07:41:34;;;;;;;9.85;3.33;;;;;;;3.55;76.70;99395.52;1630938;88;21578;-66
2023/02/19 07:44:04;;;;;;;9.20;3.10;;;;;;;3.59;76.45;99404.13;1639241;86;21178;-67
2023/02/19 07:46:35;;;;;;;10.60;3.00;;;;;;;3.62;76.24;99420.03;1674605;86;21508;-66
2023/02/19 07:49:06;;;;;;;10.53;3.12;;;;;;;3.67;75.89;99427.11;1674848;86;21278;-65
2023/02/19 07:51:38;;;;;;;9.33;3.25;;;;;;;3.72;75.67;99413.87;1674876;86;21019;-65
2023/02/19 07:54:08;;;;;;;13.08;4.80;;;;;;;3.77;75.32;99410.97;1674396;86;21448;-65
2023/02/19 07:56:37;;;;;;;8.05;2.83;;;;;;;3.82;75.17;99422.11;1674475;86;21481;-65
2023/02/19 07:59:06;;;;;;;9.13;2.85;;;;;;;3.94;74.97;99420.38;1674473;86;21002;-65
2023/02/19 08:04:23;;;;;;;8.83;2.40;;;;;;;4.16;73.66;99422.77;1674823;86;21022;-70
2023/02/19 08:06:53;;;;;;;7.00;2.12;;;;;;;4.21;72.62;99421.71;1674510;86;21026;-65
2023/02/19 08:09:22;;;;;;;7.60;2.60;;;;;;;4.22;72.42;99425.59;1674713;86;21058;-66
2023/02/19 08:14:40;;;;;;;6.83;2.40;;;;;;;4.65;71.81;99428.16;1674648;86;21030;-66
2023/02/19 08:17:09;;;;;;;8.48;3.08;;;;;;;4.86;70.27;99420.66;1674358;86;21038;-64
2023/02/19 08:19:38;;;;;;;7.17;2.90;;;;;;;4.91;69.74;99425.53;1674466;86;21142;-65
2023/02/19 08:22:07;;;;;;;9.60;2.70;;;;;;;4.91;69.46;99422.81;1674621;86;21443;-65
2023/02/19 08:24:41;;;;;;;7.67;2.60;;;;;;;4.88;69.08;99433.52;1674750;86;21460;-65
2023/02/19 08:27:07;;;;;;;12.63;3.08;;;;;;;4.87;69.32;99437.78;1674507;86;21034;-65
2023/02/19 08:29:36;;;;;;;8.40;2.65;;;;;;;4.88;69.29;99448.97;1674436;86;21513;-65
2023/02/19 08:32:05;;;;;;;8.93;2.60;;;;;;;4.87;69.14;99443.20;1674837;86;21055;-66
2023/02/19 08:34:35;;;;;;;10.53;2.40;;;;;;;4.89;69.11;99447.42;1674719;86;21043;-64
2023/02/19 08:37:06;;;;;;;8.83;2.80;;;;;;;4.89;68.72;99449.30;1674681;86;21058;-65
2023/02/19 08:39:35;;;;;;;13.22;2.47;;;;;;;4.95;68.89;99451.27;1674363;86;21415;-66
2023/02/19 08:42:04;;;;;;;7.83;2.20;;;;;;;5.13;68.00;99449.05;1653841;86;21752;-64
2023/02/19 08:44:33;;;;;;;8.48;2.77;;;;;;;5.21;66.77;99445.43;1654026;87;21008;-65
2023/02/19 08:47:04;;;;;;;8.85;2.30;;;;;;;5.15;66.17;99446.98;1654305;87;20996;-66
2023/02/19 08:49:35;;;;;;;8.70;2.62;;;;;;;5.07;65.99;99434.86;1654295;87;21075;-64
2023/02/19 08:52:05;;;;;;;8.15;2.83;;;;;;;4.98;66.06;99442.25;1653971;87;21059;-69
2023/02/19 08:54:36;;;;;;;7.20;2.20;;;;;;;4.91;66.32;99445.88;1650474;85;21065;-70
2023/02/19 08:57:05;;;;;;;14.20;2.85;;;;;;;4.84;66.40;99436.28;1638012;85;21032;-69
2023/02/19 08:59:35;;;;;;;9.20;2.70;;;;;;;4.80;66.59;99455.83;1663755;85;21549;-66
2023/02/19 09:02:04;;;;;;;9.28;2.40;;;;;;;4.78;68.02;99439.22;1652769;87;21011;-70
2023/02/19 09:04:36;;;;;;;9.90;2.72;;;;;;;4.78;67.24;99435.66;1632401;86;21074;-68
2023/02/19 09:07:09;;;;;;;9.33;2.80;;;;;;;4.80;67.38;99436.84;1631699;87;21551;-70
2023/02/19 09:09:39;;;;;;;12.35;2.98;;;;;;;4.86;67.29;99435.58;1631673;87;21074;-68
2023/02/19 09:12:10;;;;;;;11.50;2.60;;;;;;;4.90;66.76;99430.11;1660417;85;21197;-69
2023/02/19 09:14:40;;;;;;;9.38;2.40;;;;;;;4.95;66.57;99439.05;1643726;87;21521;-70
2023/02/19 09:17:09;;;;;;;8.73;2.30;;;;;;;4.98;65.87;99425.11;1681387;85;21109;-67
2023/02/19 09:19:38;;;;;;;7.20;2.30;;;;;;;4.97;65.09;99420.20;1681181;85;21058;-67
2023/02/19 09:22:07;;;;;;;8.28;2.80;;;;;;;4.86;64.94;99435.58;1643736;87;21464;-70
2023/02/19 09:24:36;;;;;;;6.60;2.37;;;;;;;4.74;65.34;99427.05;1681607;85;21043;-70
2023/02/19 09:27:05;;;;;;;7.58;3.17;;;;;;;4.68;65.86;99438.64;1681498;85;21719;-67
2023/02/19 09:29:37;;;;;;;10.45;2.60;;;;;;;4.64;66.08;99426.98;1644894;85;21109;-69
2023/02/19 09:32:08;;;;;;;11.18;3.00;;;;;;;4.58;66.22;99415.50;1644578;87;21087;-69
2023/02/19 09:34:38;;;;;;;8.20;2.40;;;;;;;4.51;66.59;99428.92;1653893;87;22046;-69
2023/02/19 09:37:08;;;;;;;11.25;2.70;;;;;;;4.47;67.15;99424.89;1653387;87;21083;-68
2023/02/19 09:39:38;;;;;;;14.47;3.45;;;;;;;4.49;67.53;99445.05;1653652;87;21476;-69
2023/02/19 09:42:14;;;;;;;6.83;2.42;;;;;;;4.49;67.60;99444.53;1659179;85;21101;-68
2023/02/19 09:44:49;;;;;;;13.37;2.23;;;;;;;4.46;67.73;99441.67;1665138;86;21090;-69
2023/02/19 09:47:22;;;;;;;11.73;2.33;;;;;;;4.41;67.70;99442.73;1629830;88;21765;-69
2023/02/19 09:49:57;;;;;;;6.83;2.15;;;;;;;4.40;68.21;99450.54;1630264;88;21066;-68
2023/02/19 09:52:43;;;;;;;9.15;2.52;;;;;;;4.44;68.48;99451.86;1630392;88;21035;-67
2023/02/19 09:55:35;;;;;;;11.18;2.35;;;;;;;4.45;69.04;99440.50;1629788;88;21095;-67
2023/02/19 09:58:28;;;;;;;8.98;2.52;;;;;;;4.46;68.46;99432.70;1630166;88;21046;-70
2023/02/19 10:00:59;;;;;;;9.33;2.60;;;;;;;4.45;67.63;99418.80;1630026;88;21075;-69
2023/02/19 10:03:33;;;;;;;6.12;2.27;;;;;;;4.44;67.64;99417.96;1630034;87;21511;-67
2023/02/19 10:06:22;;;;;;;11.20;2.40;;;;;;;4.49;67.64;99401.66;1630055;88;21129;-67
2023/02/19 10:09:16;;;;;;;11.38;2.42;;;;;;;4.56;67.61;99408.91;1630201;87;21451;-68
2023/02/19 10:11:47;;;;;;;16.82;3.52;;;;;;;4.59;67.16;99396.33;1630031;88;21063;-69
2023/02/19 10:14:24;;;;;;;8.48;2.60;;;;;;;4.67;68.09;99403.55;1630303;87;21512;-68
2023/02/19 10:16:54;;;;;;;13.95;2.80;;;;;;;4.72;67.44;99381.62;1629907;88;21495;-69
2023/02/19 10:19:23;;;;;;;12.80;2.55;;;;;;;4.74;66.99;99375.49;1629797;88;21018;-67
2023/02/19 10:21:52;;;;;;;13.20;2.40;;;;;;;4.73;66.65;99385.17;1629905;88;21074;-69
2023/02/19 10:24:26;;;;;;;11.88;3.00;;;;;;;4.75;66.94;99377.17;1629797;88;21066;-68
2023/02/19 10:26:55;;;;;;;30.60;3.83;;;;;;;4.81;66.58;99377.46;1630011;88;21066;-68
2023/02/19 10:29:26;;;;;;;10.10;2.12;;;;;;;4.84;66.25;99377.09;1630171;88;21081;-66
2023/02/19 10:32:19;;;;;;;16.10;3.08;;;;;;;4.86;65.23;99372.32;1613643;89;21060;-68
2023/02/19 10:35:08;;;;;;;11.57;2.65;;;;;;;4.83;65.34;99357.77;1629773;88;21090;-67
2023/02/19 10:37:48;;;;;;;12.23;2.90;;;;;;;4.78;64.92;99351.54;1629755;88;21148;-68
2023/02/19 10:40:21;;;;;;;11.60;2.75;;;;;;;4.78;65.07;99351.03;1629971;88;21063;-65
2023/02/19 10:42:54;;;;;;;32.17;4.85;;;;;;;4.81;64.35;99351.69;1630152;87;21074;-68
2023/02/19 10:45:25;;;;;;;9.75;2.37;;;;;;;4.82;63.04;99341.16;1627384;88;21126;-69
2023/02/19 10:47:55;;;;;;;7.05;2.25;;;;;;;4.81;62.52;99339.47;1632881;88;21018;-67
2023/02/19 10:50:31;;;;;;;11.73;2.10;;;;;;;4.78;62.08;99337.45;1618876;89;21055;-68
2023/02/19 10:53:00;;;;;;;8.03;2.30;;;;;;;4.77;61.95;99324.08;1632722;88;21137;-68
2023/02/19 10:55:34;;;;;;;7.70;2.17;;;;;;;4.75;62.11;99316.64;1618290;89;21525;-67
2023/02/19 10:58:26;;;;;;;12.65;2.35;;;;;;;4.75;62.58;99314.77;1632711;88;21046;-67
2023/02/19 11:01:23;;;;;;;8.70;2.15;;;;;;;4.78;62.34;99310.84;1627525;88;21079;-66
2023/02/19 11:03:54;;;;;;;7.05;2.15;;;;;;;4.80;62.03;99306.07;1608150;87;21095;-67
2023/02/19 11:06:25;;;;;;;9.33;3.33;;;;;;;4.81;61.76;99296.05;1648585;87;21055;-66
2023/02/19 11:08:57;;;;;;;11.75;3.08;;;;;;;4.82;61.54;99292.31;1651649;87;21474;-68
2023/02/19 11:11:35;;;;;;;13.83;3.85;;;;;;;4.80;61.52;99289.78;1651750;87;21035;-68
2023/02/19 11:14:24;;;;;;;8.23;2.70;;;;;;;4.82;61.55;99280.94;1651859;87;21427;-68
2023/02/19 11:16:56;;;;;;;7.53;2.45;;;;;;;4.86;60.89;99282.25;1651568;87;21058;-68
2023/02/19 11:19:38;;;;;;;46.92;5.62;;;;;;;4.94;62.12;99275.88;1651778;87;21485;-67
2023/02/19 11:22:37;;;;;;;11.15;2.85;;;;;;;5.01;61.14;99275.45;1651751;87;21071;-67
2023/02/19 11:25:16;;;;;;;6.00;2.00;;;;;;;5.03;60.59;99273.38;1651719;87;21655;-67
2023/02/19 11:28:23;;;;;;;9.23;2.00;;;;;;;5.05;60.17;99272.16;1651688;87;21039;-67
2023/02/19 11:30:53;;;;;;;8.73;1.85;;;;;;;5.05;59.73;99270.80;1651634;87;21046;-68
2023/02/19 11:33:26;;;;;;;10.32;2.05;;;;;;;5.05;59.08;99276.75;1651946;87;21046;-67
2023/02/19 11:36:19;;;;;;;8.40;2.02;;;;;;;4.99;58.14;99254.44;1651948;87;21011;-69
2023/02/19 11:38:47;;;;;;;7.72;2.77;;;;;;;4.94;58.24;99264.50;1652466;86;21526;-69
2023/02/19 11:41:49;;;;;;;9.60;1.80;;;;;;;4.90;58.41;99259.65;1651669;87;21058;-67
2023/02/19 11:44:54;;;;;;;4.05;1.82;;;;;;;4.90;58.58;99263.72;1642235;86;21034;-67
2023/02/19 11:47:47;;;;;;;5.95;1.70;;;;;;;4.89;59.47;99257.96;1658124;86;21086;-66
2023/02/19 11:50:30;;;;;;;13.80;3.50;;;;;;;4.93;58.90;99268.25;1621799;87;21467;-68
2023/02/19 11:53:32;;;;;;;12.05;2.00;;;;;;;4.95;58.67;99269.42;1658512;86;21034;-67
2023/02/19 11:56:16;;;;;;;9.05;2.55;;;;;;;4.98;58.33;99281.25;1604704;89;21495;-69
2023/02/19 11:59:12;;;;;;;4.42;1.60;;;;;;;4.95;57.84;99272.13;1570822;91;21102;-66
2023/02/19 12:02:07;;;;;;;7.95;2.25;;;;;;;4.94;57.88;99276.72;1570204;90;21062;-68
2023/02/19 12:05:17;;;;;;;8.48;1.80;;;;;;;4.96;57.64;99271.94;1546381;93;21226;-68
2023/02/19 12:08:23;;;;;;;6.60;1.65;;;;;;;4.98;57.64;99273.95;1546547;93;21110;-68
2023/02/19 12:11:04;;;;;;;9.28;2.47;;;;;;;5.04;57.94;99273.19;1531364;93;21573;-69
2023/02/19 12:14:14;;;;;;;7.33;2.30;;;;;;;5.12;57.96;99273.60;1556770;90;21115;-70
2023/02/19 12:17:14;;;;;;;6.15;2.27;;;;;;;5.17;56.87;99275.74;1595727;90;21089;-66
2023/02/19 12:20:00;;;;;;;11.40;2.60;;;;;;;5.22;57.91;99272.81;1596342;89;21076;-67
2023/02/19 12:22:32;;;;;;;8.55;1.80;;;;;;;5.23;56.83;99277.21;1596234;90;21517;-69
2023/02/19 12:25:12;;;;;;;9.23;1.90;;;;;;;5.24;57.40;99274.82;1595818;90;21112;-68
2023/02/19 12:28:37;;;;;;;15.28;2.50;;;;;;;5.22;56.73;99271.45;1595758;90;21092;-67
2023/02/19 12:31:45;;;;;;;6.90;2.15;;;;;;;5.20;56.17;99273.52;1596342;89;21574;-68
2023/02/19 12:34:37;;;;;;;8.73;2.00;;;;;;;5.16;56.25;99270.83;1596499;89;21060;-68
2023/02/19 12:37:21;;;;;;;7.35;2.22;;;;;;;5.14;56.33;99267.47;1596177;89;21088;-66
2023/02/19 12:40:02;;;;;;;6.65;2.10;;;;;;;5.12;56.26;99268.69;1596090;90;21561;-69